Tropical Cyclones
[Index]
Season 2017-2018 Tropical Cyclone JOSIE Track Map
Season 2017-2018 Summaries (Operational Data): [AU] [SIO] [SPAC] [SH]
<<- Previous TC | 2017-2018 Season | Next TC ->>

click for intensity scale information  Lat/long Grid: Show Hide

 Date Labels: Show Hide

Operational Tropical Cyclone Data : JTWC Advisories

Name: JOSIE
Number: 1818

28 Mar 2018 06:00 UTC to 05 Apr 2018 00:00 UTC

    date/time    lat    long     hPa   cat  kts
2018-03-28 06   16.2   169.0    1005                     
2018-03-28 18   16.0   170.1    1005                     
2018-03-29 06   18.1   170.4    1010         15          
2018-03-29 12   18.3   170.6    1010         15          
2018-03-29 18   18.3   170.9    1010         15          
2018-03-30 00   18.3   171.3    1005         20          
2018-03-30 06   18.3   171.6    1005         20          
2018-03-30 12   18.1   172.2    1001         25          
2018-03-30 18   17.9   173.0    1003         25          
2018-03-31 00   17.9   173.8    1000         30          
2018-03-31 06   18.0   174.7    1003         30          
2018-03-31 12   18.5   175.9     998    1    40          
2018-03-31 18   19.0   176.8     998    1    40          
2018-04-01 00   19.5   177.0     995    1    45          
2018-04-01 06   19.8   177.1     993    1    40          
2018-04-01 12   19.9   177.4     998    1    40          
2018-04-01 18   20.1   177.7     999    1    35          
2018-04-02 00   20.6   178.1    1002    1    35          
2018-04-02 06   21.1   178.4    1000    1    35          
2018-04-02 12   21.4   178.5     997    1    40          
2018-04-02 18   21.5   178.8     993    1    40          
2018-04-03 00   21.7   179.2     993    1    40          
2018-04-03 06   22.8   179.6W    998    1    35          
2018-04-03 12   22.9   179.3W   1002         30          
2018-04-03 18   23.0   178.9W   1000         30          
2018-04-04 00   23.4   178.2W   1000         30          
2018-04-04 06   24.0   177.9W    998         30          
2018-04-04 12   24.3   177.7W    998         30          
2018-04-04 18   24.3   177.3W    998         30          
2018-04-05 00   23.6   176.4W   1000         30          
Winds are 10-min average.

Tropical cyclone tracks developed by Michael Bath using operational warnings and advisories and Google Maps.


Document: tropical_cyclone_josie.htm
Updated: 17 June 2020
[Australian Severe Weather index] [Copyright Notice] [Email Contacts] [Search This Site] [Privacy Policy]


Main Index Home Page Stock Weather Photos Extreme Storms Discussion Storm News and Storm Chasing Reports Tropical Cyclones / Hurricanes / Typhoons Weather Data and Links Wild Fires / Bushfires Weather Observation Techniques Weather Picture Catalogue Tornado Pictures and Reports Stock Video Footage and DVDs for sale